sensor_id;sensor_type;location;lat;lon;timestamp;temperature;humidity
77839;SHT31;67034;43.226;27.932;2023-11-19T00:02:08;3.32;80.46
77839;SHT31;67034;43.226;27.932;2023-11-19T00:04:36;3.30;80.22
77839;SHT31;67034;43.226;27.932;2023-11-19T00:07:02;3.22;80.55
77839;SHT31;67034;43.226;27.932;2023-11-19T00:09:30;3.18;80.75
77839;SHT31;67034;43.226;27.932;2023-11-19T00:11:57;3.11;80.91
77839;SHT31;67034;43.226;27.932;2023-11-19T00:14:23;3.06;81.34
77839;SHT31;67034;43.226;27.932;2023-11-19T00:16:50;3.06;81.16
77839;SHT31;67034;43.226;27.932;2023-11-19T00:19:16;3.08;81.31
77839;SHT31;67034;43.226;27.932;2023-11-19T00:21:42;3.03;81.28
77839;SHT31;67034;43.226;27.932;2023-11-19T00:24:08;3.02;81.42
77839;SHT31;67034;43.226;27.932;2023-11-19T00:26:34;3.02;81.55
77839;SHT31;67034;43.226;27.932;2023-11-19T00:29:01;3.06;81.31
77839;SHT31;67034;43.226;27.932;2023-11-19T00:31:27;3.05;81.36
77839;SHT31;67034;43.226;27.932;2023-11-19T00:33:53;3.05;81.47
77839;SHT31;67034;43.226;27.932;2023-11-19T00:36:19;3.02;81.58
77839;SHT31;67034;43.226;27.932;2023-11-19T00:38:44;3.02;81.61
77839;SHT31;67034;43.226;27.932;2023-11-19T00:41:10;3.03;81.64
77839;SHT31;67034;43.226;27.932;2023-11-19T00:43:36;3.05;81.38
77839;SHT31;67034;43.226;27.932;2023-11-19T00:46:03;3.06;81.48
77839;SHT31;67034;43.226;27.932;2023-11-19T00:48:32;3.11;81.43
77839;SHT31;67034;43.226;27.932;2023-11-19T00:50:58;3.16;81.41
77839;SHT31;67034;43.226;27.932;2023-11-19T00:53:23;3.27;80.95
77839;SHT31;67034;43.226;27.932;2023-11-19T00:55:49;3.36;80.69
77839;SHT31;67034;43.226;27.932;2023-11-19T00:58:15;3.43;80.29
77839;SHT31;67034;43.226;27.932;2023-11-19T01:00:40;3.46;79.69
77839;SHT31;67034;43.226;27.932;2023-11-19T01:03:07;3.43;79.83
77839;SHT31;67034;43.226;27.932;2023-11-19T01:05:33;3.40;79.75
77839;SHT31;67034;43.226;27.932;2023-11-19T01:07:59;3.36;80.06
77839;SHT31;67034;43.226;27.932;2023-11-19T01:10:24;3.30;80.34
77839;SHT31;67034;43.226;27.932;2023-11-19T01:12:51;3.36;80.48
77839;SHT31;67034;43.226;27.932;2023-11-19T01:15:17;3.44;79.96
77839;SHT31;67034;43.226;27.932;2023-11-19T01:17:44;3.47;79.42
77839;SHT31;67034;43.226;27.932;2023-11-19T01:20:12;3.56;79.34
77839;SHT31;67034;43.226;27.932;2023-11-19T01:22:38;3.60;78.98
77839;SHT31;67034;43.226;27.932;2023-11-19T01:25:05;3.57;79.20
77839;SHT31;67034;43.226;27.932;2023-11-19T01:27:32;3.49;79.25
77839;SHT31;67034;43.226;27.932;2023-11-19T01:30:00;3.43;79.34
77839;SHT31;67034;43.226;27.932;2023-11-19T01:32:27;3.37;79.47
77839;SHT31;67034;43.226;27.932;2023-11-19T01:34:53;3.34;79.60
77839;SHT31;67034;43.226;27.932;2023-11-19T01:37:20;3.36;79.80
77839;SHT31;67034;43.226;27.932;2023-11-19T01:39:45;3.43;79.32
77839;SHT31;67034;43.226;27.932;2023-11-19T01:42:11;3.49;79.02
77839;SHT31;67034;43.226;27.932;2023-11-19T01:44:37;3.50;79.01
77839;SHT31;67034;43.226;27.932;2023-11-19T01:47:03;3.56;78.84
77839;SHT31;67034;43.226;27.932;2023-11-19T01:49:30;3.53;78.75
77839;SHT31;67034;43.226;27.932;2023-11-19T01:51:57;3.46;78.58
77839;SHT31;67034;43.226;27.932;2023-11-19T01:54:24;3.34;78.94
77839;SHT31;67034;43.226;27.932;2023-11-19T01:56:50;3.27;79.31
77839;SHT31;67034;43.226;27.932;2023-11-19T01:59:16;3.23;79.66
77839;SHT31;67034;43.226;27.932;2023-11-19T02:01:42;3.16;79.80
77839;SHT31;67034;43.226;27.932;2023-11-19T02:04:08;3.12;80.04
77839;SHT31;67034;43.226;27.932;2023-11-19T02:06:34;3.18;80.37
77839;SHT31;67034;43.226;27.932;2023-11-19T02:09:02;3.32;79.89
77839;SHT31;67034;43.226;27.932;2023-11-19T02:11:34;3.34;79.58
77839;SHT31;67034;43.226;27.932;2023-11-19T02:14:00;3.40;79.53
77839;SHT31;67034;43.226;27.932;2023-11-19T02:16:26;3.46;79.09
77839;SHT31;67034;43.226;27.932;2023-11-19T02:18:52;3.40;78.76
77839;SHT31;67034;43.226;27.932;2023-11-19T02:21:17;3.30;79.13
77839;SHT31;67034;43.226;27.932;2023-11-19T02:23:44;3.23;79.53
77839;SHT31;67034;43.226;27.932;2023-11-19T02:26:13;3.19;79.80
77839;SHT31;67034;43.226;27.932;2023-11-19T02:28:42;3.16;79.94
77839;SHT31;67034;43.226;27.932;2023-11-19T02:31:08;3.13;80.01
77839;SHT31;67034;43.226;27.932;2023-11-19T02:33:36;3.11;80.06
77839;SHT31;67034;43.226;27.932;2023-11-19T02:36:02;3.12;80.35
77839;SHT31;67034;43.226;27.932;2023-11-19T02:38:29;3.23;79.88
77839;SHT31;67034;43.226;27.932;2023-11-19T02:40:56;3.29;79.44
77839;SHT31;67034;43.226;27.932;2023-11-19T02:43:21;3.33;79.19
77839;SHT31;67034;43.226;27.932;2023-11-19T02:45:49;3.42;78.61
77839;SHT31;67034;43.226;27.932;2023-11-19T02:48:16;3.33;78.69
77839;SHT31;67034;43.226;27.932;2023-11-19T02:50:42;3.25;79.06
77839;SHT31;67034;43.226;27.932;2023-11-19T02:53:07;3.16;79.50
77839;SHT31;67034;43.226;27.932;2023-11-19T02:55:33;3.11;79.64
77839;SHT31;67034;43.226;27.932;2023-11-19T02:58:05;3.02;79.94
77839;SHT31;67034;43.226;27.932;2023-11-19T03:00:45;3.03;80.10
77839;SHT31;67034;43.226;27.932;2023-11-19T03:03:21;3.06;80.10
77839;SHT31;67034;43.226;27.932;2023-11-19T03:05:48;2.99;80.19
77839;SHT31;67034;43.226;27.932;2023-11-19T03:08:15;2.95;80.15
77839;SHT31;67034;43.226;27.932;2023-11-19T03:10:41;2.96;79.90
77839;SHT31;67034;43.226;27.932;2023-11-19T03:13:13;2.95;80.10
77839;SHT31;67034;43.226;27.932;2023-11-19T03:15:45;2.96;79.89
77839;SHT31;67034;43.226;27.932;2023-11-19T03:18:11;2.92;79.91
77839;SHT31;67034;43.226;27.932;2023-11-19T03:20:38;2.94;79.96
77839;SHT31;67034;43.226;27.932;2023-11-19T03:23:04;2.92;80.04
77839;SHT31;67034;43.226;27.932;2023-11-19T03:25:31;2.91;80.07
77839;SHT31;67034;43.226;27.932;2023-11-19T03:28:02;2.85;80.26
77839;SHT31;67034;43.226;27.932;2023-11-19T03:30:27;2.88;80.03
77839;SHT31;67034;43.226;27.932;2023-11-19T03:32:54;2.85;80.04
77839;SHT31;67034;43.226;27.932;2023-11-19T03:35:19;2.84;80.06
77839;SHT31;67034;43.226;27.932;2023-11-19T03:37:47;2.85;79.94
77839;SHT31;67034;43.226;27.932;2023-11-19T03:40:13;2.85;79.83
77839;SHT31;67034;43.226;27.932;2023-11-19T03:42:40;2.87;79.64
77839;SHT31;67034;43.226;27.932;2023-11-19T03:45:06;2.88;79.50
77839;SHT31;67034;43.226;27.932;2023-11-19T03:47:33;2.88;79.26
77839;SHT31;67034;43.226;27.932;2023-11-19T03:49:59;2.88;79.52
77839;SHT31;67034;43.226;27.932;2023-11-19T03:52:25;2.91;79.23
77839;SHT31;67034;43.226;27.932;2023-11-19T03:54:53;2.94;79.28
77839;SHT31;67034;43.226;27.932;2023-11-19T03:57:20;2.94;79.04
77839;SHT31;67034;43.226;27.932;2023-11-19T03:59:46;2.95;78.91
77839;SHT31;67034;43.226;27.932;2023-11-19T04:02:12;2.95;79.10
77839;SHT31;67034;43.226;27.932;2023-11-19T04:04:37;2.95;78.98
77839;SHT31;67034;43.226;27.932;2023-11-19T04:07:04;2.95;78.71
77839;SHT31;67034;43.226;27.932;2023-11-19T04:09:30;3.01;78.73
77839;SHT31;67034;43.226;27.932;2023-11-19T04:11:59;2.99;78.55
77839;SHT31;67034;43.226;27.932;2023-11-19T04:14:26;2.98;78.55
77839;SHT31;67034;43.226;27.932;2023-11-19T04:16:52;3.01;78.11
77839;SHT31;67034;43.226;27.932;2023-11-19T04:19:18;3.02;77.95
77839;SHT31;67034;43.226;27.932;2023-11-19T04:21:44;3.05;77.73
77839;SHT31;67034;43.226;27.932;2023-11-19T04:24:10;3.09;77.41
77839;SHT31;67034;43.226;27.932;2023-11-19T04:26:40;3.30;77.16
77839;SHT31;67034;43.226;27.932;2023-11-19T04:29:07;3.39;75.69
77839;SHT31;67034;43.226;27.932;2023-11-19T04:31:34;3.43;75.73
77839;SHT31;67034;43.226;27.932;2023-11-19T04:33:59;3.47;75.42
77839;SHT31;67034;43.226;27.932;2023-11-19T04:36:25;3.40;75.47
77839;SHT31;67034;43.226;27.932;2023-11-19T04:38:51;3.33;75.49
77839;SHT31;67034;43.226;27.932;2023-11-19T04:41:17;3.29;75.43
77839;SHT31;67034;43.226;27.932;2023-11-19T04:43:43;3.25;75.80
77839;SHT31;67034;43.226;27.932;2023-11-19T04:46:10;3.26;76.08
77839;SHT31;67034;43.226;27.932;2023-11-19T04:48:36;3.22;76.02
77839;SHT31;67034;43.226;27.932;2023-11-19T04:51:04;3.19;76.18
77839;SHT31;67034;43.226;27.932;2023-11-19T04:53:30;3.16;76.40
77839;SHT31;67034;43.226;27.932;2023-11-19T04:55:56;3.11;76.81
77839;SHT31;67034;43.226;27.932;2023-11-19T04:58:22;3.20;76.99
77839;SHT31;67034;43.226;27.932;2023-11-19T05:00:48;3.23;76.74
77839;SHT31;67034;43.226;27.932;2023-11-19T05:03:15;3.23;76.58
77839;SHT31;67034;43.226;27.932;2023-11-19T05:05:40;3.25;76.93
77839;SHT31;67034;43.226;27.932;2023-11-19T05:08:06;3.23;76.61
77839;SHT31;67034;43.226;27.932;2023-11-19T05:10:32;3.13;76.65
77839;SHT31;67034;43.226;27.932;2023-11-19T05:12:58;2.98;77.23
77839;SHT31;67034;43.226;27.932;2023-11-19T05:15:23;2.92;77.40
77839;SHT31;67034;43.226;27.932;2023-11-19T05:17:49;2.89;77.45
77839;SHT31;67034;43.226;27.932;2023-11-19T05:20:16;2.87;77.71
77839;SHT31;67034;43.226;27.932;2023-11-19T05:22:42;2.88;77.71
77839;SHT31;67034;43.226;27.932;2023-11-19T05:25:08;2.89;77.59
77839;SHT31;67034;43.226;27.932;2023-11-19T05:27:34;2.87;76.76
77839;SHT31;67034;43.226;27.932;2023-11-19T05:30:01;2.89;76.40
77839;SHT31;67034;43.226;27.932;2023-11-19T05:32:27;2.88;76.46
77839;SHT31;67034;43.226;27.932;2023-11-19T05:34:52;2.92;76.09
77839;SHT31;67034;43.226;27.932;2023-11-19T05:37:19;2.94;75.54
77839;SHT31;67034;43.226;27.932;2023-11-19T05:39:45;3.05;75.58
77839;SHT31;67034;43.226;27.932;2023-11-19T05:42:11;3.15;75.34
77839;SHT31;67034;43.226;27.932;2023-11-19T05:44:37;3.19;74.50
77839;SHT31;67034;43.226;27.932;2023-11-19T05:47:03;3.22;74.65
77839;SHT31;67034;43.226;27.932;2023-11-19T05:49:29;3.22;74.35
77839;SHT31;67034;43.226;27.932;2023-11-19T05:51:55;3.16;74.37
77839;SHT31;67034;43.226;27.932;2023-11-19T05:54:22;3.06;74.31
77839;SHT31;67034;43.226;27.932;2023-11-19T05:56:48;2.98;74.55
77839;SHT31;67034;43.226;27.932;2023-11-19T05:59:14;2.91;74.63
77839;SHT31;67034;43.226;27.932;2023-11-19T06:01:43;2.88;74.75
77839;SHT31;67034;43.226;27.932;2023-11-19T06:04:09;2.82;74.45
77839;SHT31;67034;43.226;27.932;2023-11-19T06:06:35;2.80;74.29
77839;SHT31;67034;43.226;27.932;2023-11-19T06:09:01;2.78;74.18
77839;SHT31;67034;43.226;27.932;2023-11-19T06:11:29;2.77;74.23
77839;SHT31;67034;43.226;27.932;2023-11-19T06:13:54;2.75;74.25
77839;SHT31;67034;43.226;27.932;2023-11-19T06:16:20;2.73;73.67
77839;SHT31;67034;43.226;27.932;2023-11-19T06:18:46;2.75;73.81
77839;SHT31;67034;43.226;27.932;2023-11-19T06:21:12;2.73;73.58
77839;SHT31;67034;43.226;27.932;2023-11-19T06:23:38;2.68;73.63
77839;SHT31;67034;43.226;27.932;2023-11-19T06:26:04;2.71;73.71
77839;SHT31;67034;43.226;27.932;2023-11-19T06:28:32;2.81;73.07
77839;SHT31;67034;43.226;27.932;2023-11-19T06:30:57;2.87;72.28
77839;SHT31;67034;43.226;27.932;2023-11-19T06:33:23;2.85;72.47
77839;SHT31;67034;43.226;27.932;2023-11-19T06:35:49;2.88;71.99
77839;SHT31;67034;43.226;27.932;2023-11-19T06:38:15;2.85;71.97
77839;SHT31;67034;43.226;27.932;2023-11-19T06:40:41;2.78;72.24
77839;SHT31;67034;43.226;27.932;2023-11-19T06:43:07;2.66;72.16
77839;SHT31;67034;43.226;27.932;2023-11-19T06:45:35;2.61;72.59
77839;SHT31;67034;43.226;27.932;2023-11-19T06:48:05;2.60;72.44
77839;SHT31;67034;43.226;27.932;2023-11-19T06:50:30;2.60;72.10
77839;SHT31;67034;43.226;27.932;2023-11-19T06:52:56;2.60;72.41
77839;SHT31;67034;43.226;27.932;2023-11-19T06:55:22;2.55;71.98
77839;SHT31;67034;43.226;27.932;2023-11-19T06:57:47;2.53;72.03
77839;SHT31;67034;43.226;27.932;2023-11-19T07:00:13;2.48;72.29
77839;SHT31;67034;43.226;27.932;2023-11-19T07:02:41;2.51;72.64
77839;SHT31;67034;43.226;27.932;2023-11-19T07:05:07;2.50;72.37
77839;SHT31;67034;43.226;27.932;2023-11-19T07:07:33;2.47;72.45
77839;SHT31;67034;43.226;27.932;2023-11-19T07:09:59;2.48;72.63
77839;SHT31;67034;43.226;27.932;2023-11-19T07:12:25;2.45;72.73
77839;SHT31;67034;43.226;27.932;2023-11-19T07:14:52;2.48;72.88
77839;SHT31;67034;43.226;27.932;2023-11-19T07:17:18;2.57;72.73
77839;SHT31;67034;43.226;27.932;2023-11-19T07:19:45;2.68;72.32
77839;SHT31;67034;43.226;27.932;2023-11-19T07:22:11;2.75;72.39
77839;SHT31;67034;43.226;27.932;2023-11-19T07:24:38;2.84;72.01
77839;SHT31;67034;43.226;27.932;2023-11-19T07:27:04;2.87;71.57
77839;SHT31;67034;43.226;27.932;2023-11-19T07:29:30;2.80;71.75
77839;SHT31;67034;43.226;27.932;2023-11-19T07:31:57;2.70;72.31
77839;SHT31;67034;43.226;27.932;2023-11-19T07:34:22;2.64;72.06
77839;SHT31;67034;43.226;27.932;2023-11-19T07:36:50;2.64;72.18
77839;SHT31;67034;43.226;27.932;2023-11-19T07:39:16;2.60;72.50
77839;SHT31;67034;43.226;27.932;2023-11-19T07:41:41;2.58;72.51
77839;SHT31;67034;43.226;27.932;2023-11-19T07:44:07;2.60;72.70
77839;SHT31;67034;43.226;27.932;2023-11-19T07:46:33;2.57;72.98
77839;SHT31;67034;43.226;27.932;2023-11-19T07:48:58;2.60;72.82
77839;SHT31;67034;43.226;27.932;2023-11-19T07:51:24;2.57;72.62
77839;SHT31;67034;43.226;27.932;2023-11-19T07:53:51;2.54;72.85
77839;SHT31;67034;43.226;27.932;2023-11-19T07:56:17;2.48;72.83
77839;SHT31;67034;43.226;27.932;2023-11-19T07:58:43;2.48;72.93
77839;SHT31;67034;43.226;27.932;2023-11-19T08:01:09;2.45;73.14
77839;SHT31;67034;43.226;27.932;2023-11-19T08:03:34;2.45;72.97
77839;SHT31;67034;43.226;27.932;2023-11-19T08:06:00;2.53;73.21
77839;SHT31;67034;43.226;27.932;2023-11-19T08:08:27;2.64;72.54
77839;SHT31;67034;43.226;27.932;2023-11-19T08:10:56;2.73;72.42
77839;SHT31;67034;43.226;27.932;2023-11-19T08:13:22;2.78;71.99
77839;SHT31;67034;43.226;27.932;2023-11-19T08:15:48;2.82;71.26
77839;SHT31;67034;43.226;27.932;2023-11-19T08:18:14;2.77;71.89
77839;SHT31;67034;43.226;27.932;2023-11-19T08:20:40;2.68;72.04
77839;SHT31;67034;43.226;27.932;2023-11-19T08:23:06;2.64;72.09
77839;SHT31;67034;43.226;27.932;2023-11-19T08:25:33;2.55;72.49
77839;SHT31;67034;43.226;27.932;2023-11-19T08:28:03;2.57;72.64
77839;SHT31;67034;43.226;27.932;2023-11-19T08:30:29;2.55;72.66
77839;SHT31;67034;43.226;27.932;2023-11-19T08:32:55;2.54;72.86
77839;SHT31;67034;43.226;27.932;2023-11-19T08:35:21;2.55;72.33
77839;SHT31;67034;43.226;27.932;2023-11-19T08:37:47;2.58;72.44
77839;SHT31;67034;43.226;27.932;2023-11-19T08:40:13;2.60;72.19
77839;SHT31;67034;43.226;27.932;2023-11-19T08:42:39;2.60;72.52
77839;SHT31;67034;43.226;27.932;2023-11-19T08:45:08;2.57;72.25
77839;SHT31;67034;43.226;27.932;2023-11-19T08:47:37;2.58;72.54
77839;SHT31;67034;43.226;27.932;2023-11-19T08:50:03;2.57;72.96
77839;SHT31;67034;43.226;27.932;2023-11-19T08:52:29;2.54;72.84
77839;SHT31;67034;43.226;27.932;2023-11-19T08:54:55;2.55;72.91
77839;SHT31;67034;43.226;27.932;2023-11-19T08:57:21;2.51;72.59
77839;SHT31;67034;43.226;27.932;2023-11-19T08:59:47;2.51;72.62
77839;SHT31;67034;43.226;27.932;2023-11-19T09:02:14;2.45;73.21
77839;SHT31;67034;43.226;27.932;2023-11-19T09:04:39;2.47;73.07
77839;SHT31;67034;43.226;27.932;2023-11-19T09:07:06;2.47;72.63
77839;SHT31;67034;43.226;27.932;2023-11-19T09:09:34;2.53;72.63
77839;SHT31;67034;43.226;27.932;2023-11-19T09:12:01;2.51;72.42
77839;SHT31;67034;43.226;27.932;2023-11-19T09:14:26;2.57;72.53
77839;SHT31;67034;43.226;27.932;2023-11-19T09:16:52;2.57;72.30
77839;SHT31;67034;43.226;27.932;2023-11-19T09:19:19;2.60;72.47
77839;SHT31;67034;43.226;27.932;2023-11-19T09:24:04;2.66;72.09
77839;SHT31;67034;43.226;27.932;2023-11-19T09:26:30;2.75;71.57
77839;SHT31;67034;43.226;27.932;2023-11-19T09:28:56;2.82;71.30
77839;SHT31;67034;43.226;27.932;2023-11-19T09:31:22;2.89;71.40
77839;SHT31;67034;43.226;27.932;2023-11-19T09:33:47;2.91;70.55
77839;SHT31;67034;43.226;27.932;2023-11-19T09:36:13;2.94;70.31
77839;SHT31;67034;43.226;27.932;2023-11-19T09:38:42;2.94;70.46
77839;SHT31;67034;43.226;27.932;2023-11-19T09:41:10;2.95;70.53
77839;SHT31;67034;43.226;27.932;2023-11-19T09:43:39;2.92;70.37
77839;SHT31;67034;43.226;27.932;2023-11-19T09:46:06;2.94;70.64
77839;SHT31;67034;43.226;27.932;2023-11-19T09:48:33;2.96;70.24
77839;SHT31;67034;43.226;27.932;2023-11-19T09:50:58;3.02;69.92
77839;SHT31;67034;43.226;27.932;2023-11-19T09:53:24;3.09;70.21
77839;SHT31;67034;43.226;27.932;2023-11-19T09:55:51;3.11;69.79
77839;SHT31;67034;43.226;27.932;2023-11-19T09:58:19;3.11;69.69
77839;SHT31;67034;43.226;27.932;2023-11-19T10:00:44;3.08;69.68
77839;SHT31;67034;43.226;27.932;2023-11-19T10:03:12;3.13;69.79
77839;SHT31;67034;43.226;27.932;2023-11-19T10:05:38;3.15;69.45
77839;SHT31;67034;43.226;27.932;2023-11-19T10:08:05;3.15;69.59
77839;SHT31;67034;43.226;27.932;2023-11-19T10:10:31;3.18;69.15
77839;SHT31;67034;43.226;27.932;2023-11-19T10:12:57;3.19;69.29
77839;SHT31;67034;43.226;27.932;2023-11-19T10:15:25;3.27;69.56
77839;SHT31;67034;43.226;27.932;2023-11-19T10:17:52;3.40;69.12
77839;SHT31;67034;43.226;27.932;2023-11-19T10:20:18;3.73;69.46
77839;SHT31;67034;43.226;27.932;2023-11-19T10:22:43;3.91;68.07
77839;SHT31;67034;43.226;27.932;2023-11-19T10:25:22;3.95;67.40
77839;SHT31;67034;43.226;27.932;2023-11-19T10:27:48;3.85;67.37
77839;SHT31;67034;43.226;27.932;2023-11-19T10:30:17;3.94;67.58
77839;SHT31;67034;43.226;27.932;2023-11-19T10:32:44;4.06;67.27
77839;SHT31;67034;43.226;27.932;2023-11-19T10:35:10;4.25;66.58
77839;SHT31;67034;43.226;27.932;2023-11-19T10:37:39;4.45;66.10
77839;SHT31;67034;43.226;27.932;2023-11-19T10:40:05;4.69;65.45
77839;SHT31;67034;43.226;27.932;2023-11-19T10:42:31;4.77;64.54
77839;SHT31;67034;43.226;27.932;2023-11-19T10:44:57;4.74;63.97
77839;SHT31;67034;43.226;27.932;2023-11-19T10:47:23;4.77;63.30
77839;SHT31;67034;43.226;27.932;2023-11-19T10:49:50;4.87;62.30
77839;SHT31;67034;43.226;27.932;2023-11-19T10:52:18;5.05;60.58
77839;SHT31;67034;43.226;27.932;2023-11-19T10:54:50;4.97;60.65
77839;SHT31;67034;43.226;27.932;2023-11-19T10:57:20;4.81;61.05
77839;SHT31;67034;43.226;27.932;2023-11-19T10:59:47;4.69;61.43
77839;SHT31;67034;43.226;27.932;2023-11-19T11:02:19;4.64;61.01
77839;SHT31;67034;43.226;27.932;2023-11-19T11:04:47;4.60;61.44
77839;SHT31;67034;43.226;27.932;2023-11-19T11:07:18;4.60;61.97
77839;SHT31;67034;43.226;27.932;2023-11-19T11:09:46;4.71;62.25
77839;SHT31;67034;43.226;27.932;2023-11-19T11:12:15;4.70;62.73
77839;SHT31;67034;43.226;27.932;2023-11-19T11:14:44;4.84;62.35
77839;SHT31;67034;43.226;27.932;2023-11-19T11:17:11;4.98;62.40
77839;SHT31;67034;43.226;27.932;2023-11-19T11:19:38;5.27;61.64
77839;SHT31;67034;43.226;27.932;2023-11-19T11:22:05;5.58;60.18
77839;SHT31;67034;43.226;27.932;2023-11-19T11:24:51;5.70;59.23
77839;SHT31;67034;43.226;27.932;2023-11-19T11:27:43;5.63;59.42
77839;SHT31;67034;43.226;27.932;2023-11-19T11:30:20;5.52;60.02
77839;SHT31;67034;43.226;27.932;2023-11-19T11:32:54;5.28;60.55
77839;SHT31;67034;43.226;27.932;2023-11-19T11:35:31;5.18;61.21
77839;SHT31;67034;43.226;27.932;2023-11-19T11:38:03;5.07;61.60
77839;SHT31;67034;43.226;27.932;2023-11-19T11:40:30;5.08;61.67
77839;SHT31;67034;43.226;27.932;2023-11-19T11:42:57;5.07;62.04
77839;SHT31;67034;43.226;27.932;2023-11-19T11:45:35;5.14;62.71
77839;SHT31;67034;43.226;27.932;2023-11-19T11:48:17;5.42;61.90
77839;SHT31;67034;43.226;27.932;2023-11-19T11:50:56;5.77;61.34
77839;SHT31;67034;43.226;27.932;2023-11-19T11:53:22;5.94;60.04
77839;SHT31;67034;43.226;27.932;2023-11-19T11:55:55;6.06;60.33
77839;SHT31;67034;43.226;27.932;2023-11-19T11:58:26;6.16;59.98
77839;SHT31;67034;43.226;27.932;2023-11-19T12:00:52;6.21;59.78
77839;SHT31;67034;43.226;27.932;2023-11-19T12:03:20;6.22;60.12
77839;SHT31;67034;43.226;27.932;2023-11-19T12:05:47;6.39;60.43
77839;SHT31;67034;43.226;27.932;2023-11-19T12:08:14;6.48;60.51
77839;SHT31;67034;43.226;27.932;2023-11-19T12:10:44;6.64;60.31
77839;SHT31;67034;43.226;27.932;2023-11-19T12:13:14;6.69;59.93
77839;SHT31;67034;43.226;27.932;2023-11-19T12:16:07;6.79;60.20
77839;SHT31;67034;43.226;27.932;2023-11-19T12:18:33;6.95;59.76
77839;SHT31;67034;43.226;27.932;2023-11-19T12:21:00;7.10;58.81
77839;SHT31;67034;43.226;27.932;2023-11-19T12:23:26;7.37;58.61
77839;SHT31;67034;43.226;27.932;2023-11-19T12:25:52;7.69;57.33
77839;SHT31;67034;43.226;27.932;2023-11-19T12:28:19;7.93;56.83
77839;SHT31;67034;43.226;27.932;2023-11-19T12:30:45;8.27;55.70
77839;SHT31;67034;43.226;27.932;2023-11-19T12:33:14;8.65;54.58
77839;SHT31;67034;43.226;27.932;2023-11-19T12:35:40;9.05;53.53
77839;SHT31;67034;43.226;27.932;2023-11-19T12:38:06;9.13;53.01
77839;SHT31;67034;43.226;27.932;2023-11-19T12:40:31;9.42;52.64
77839;SHT31;67034;43.226;27.932;2023-11-19T12:42:57;9.54;51.81
77839;SHT31;67034;43.226;27.932;2023-11-19T12:45:24;9.85;51.44
77839;SHT31;67034;43.226;27.932;2023-11-19T12:48:04;9.74;50.89
77839;SHT31;67034;43.226;27.932;2023-11-19T12:50:29;8.16;54.67
77839;SHT31;67034;43.226;27.932;2023-11-19T12:53:16;6.79;59.34
77839;SHT31;67034;43.226;27.932;2023-11-19T12:55:42;6.16;61.66
77839;SHT31;67034;43.226;27.932;2023-11-19T12:58:08;5.83;63.29
77839;SHT31;67034;43.226;27.932;2023-11-19T13:00:35;5.66;64.17
77839;SHT31;67034;43.226;27.932;2023-11-19T13:03:00;5.50;64.96
77839;SHT31;67034;43.226;27.932;2023-11-19T13:05:27;5.32;65.50
77839;SHT31;67034;43.226;27.932;2023-11-19T13:08:04;5.28;66.11
77839;SHT31;67034;43.226;27.932;2023-11-19T13:10:30;5.39;66.24
77839;SHT31;67034;43.226;27.932;2023-11-19T13:13:02;5.81;65.33
77839;SHT31;67034;43.226;27.932;2023-11-19T13:15:28;6.08;64.92
77839;SHT31;67034;43.226;27.932;2023-11-19T13:17:55;6.18;63.90
77839;SHT31;67034;43.226;27.932;2023-11-19T13:20:21;6.38;63.62
77839;SHT31;67034;43.226;27.932;2023-11-19T13:22:54;6.44;63.40
77839;SHT31;67034;43.226;27.932;2023-11-19T13:25:20;6.35;63.42
77839;SHT31;67034;43.226;27.932;2023-11-19T13:27:46;6.22;64.07
77839;SHT31;67034;43.226;27.932;2023-11-19T13:30:12;6.16;64.46
77839;SHT31;67034;43.226;27.932;2023-11-19T13:32:38;6.00;64.75
77839;SHT31;67034;43.226;27.932;2023-11-19T13:35:06;5.97;65.17
77839;SHT31;67034;43.226;27.932;2023-11-19T13:37:34;5.93;65.39
77839;SHT31;67034;43.226;27.932;2023-11-19T13:39:59;5.93;65.54
77839;SHT31;67034;43.226;27.932;2023-11-19T13:42:25;6.07;65.38
77839;SHT31;67034;43.226;27.932;2023-11-19T13:44:51;6.13;65.35
77839;SHT31;67034;43.226;27.932;2023-11-19T13:47:17;6.13;65.44
77839;SHT31;67034;43.226;27.932;2023-11-19T13:49:44;6.10;65.45
77839;SHT31;67034;43.226;27.932;2023-11-19T13:52:11;6.07;65.47
77839;SHT31;67034;43.226;27.932;2023-11-19T13:54:39;6.04;65.67
77839;SHT31;67034;43.226;27.932;2023-11-19T13:57:04;6.08;65.63
77839;SHT31;67034;43.226;27.932;2023-11-19T13:59:31;6.11;65.67
77839;SHT31;67034;43.226;27.932;2023-11-19T14:01:58;6.06;65.81
77839;SHT31;67034;43.226;27.932;2023-11-19T14:04:23;5.93;66.02
77839;SHT31;67034;43.226;27.932;2023-11-19T14:06:49;5.85;66.34
77839;SHT31;67034;43.226;27.932;2023-11-19T14:09:16;5.77;66.69
77839;SHT31;67034;43.226;27.932;2023-11-19T14:11:42;5.74;66.70
77839;SHT31;67034;43.226;27.932;2023-11-19T14:14:08;5.69;67.03
77839;SHT31;67034;43.226;27.932;2023-11-19T14:16:34;5.48;67.50
77839;SHT31;67034;43.226;27.932;2023-11-19T14:19:00;5.28;68.21
77839;SHT31;67034;43.226;27.932;2023-11-19T14:21:26;5.29;68.42
77839;SHT31;67034;43.226;27.932;2023-11-19T14:23:51;5.32;68.27
77839;SHT31;67034;43.226;27.932;2023-11-19T14:26:19;5.32;68.36
77839;SHT31;67034;43.226;27.932;2023-11-19T14:28:45;5.43;68.09
77839;SHT31;67034;43.226;27.932;2023-11-19T14:31:11;5.38;67.97
77839;SHT31;67034;43.226;27.932;2023-11-19T14:33:36;5.28;68.31
77839;SHT31;67034;43.226;27.932;2023-11-19T14:36:04;5.17;68.63
77839;SHT31;67034;43.226;27.932;2023-11-19T14:38:31;5.07;68.94
77839;SHT31;67034;43.226;27.932;2023-11-19T14:40:58;4.97;69.51
77839;SHT31;67034;43.226;27.932;2023-11-19T14:43:26;4.81;70.13
77839;SHT31;67034;43.226;27.932;2023-11-19T14:45:52;4.67;70.57
77839;SHT31;67034;43.226;27.932;2023-11-19T14:48:18;4.66;70.86
77839;SHT31;67034;43.226;27.932;2023-11-19T14:50:43;4.64;71.07
77839;SHT31;67034;43.226;27.932;2023-11-19T14:53:12;4.54;71.35
77839;SHT31;67034;43.226;27.932;2023-11-19T14:55:38;4.48;71.54
77839;SHT31;67034;43.226;27.932;2023-11-19T14:58:04;4.45;71.67
77839;SHT31;67034;43.226;27.932;2023-11-19T15:00:31;4.43;71.86
77839;SHT31;67034;43.226;27.932;2023-11-19T15:02:57;4.48;71.73
77839;SHT31;67034;43.226;27.932;2023-11-19T15:05:22;4.53;71.70
77839;SHT31;67034;43.226;27.932;2023-11-19T15:07:48;4.59;71.31
77839;SHT31;67034;43.226;27.932;2023-11-19T15:10:14;4.66;70.91
77839;SHT31;67034;43.226;27.932;2023-11-19T15:12:39;4.64;70.75
77839;SHT31;67034;43.226;27.932;2023-11-19T15:15:07;4.59;70.94
77839;SHT31;67034;43.226;27.932;2023-11-19T15:17:36;4.49;71.25
77839;SHT31;67034;43.226;27.932;2023-11-19T15:20:03;4.43;71.47
77839;SHT31;67034;43.226;27.932;2023-11-19T15:22:28;4.35;71.67
77839;SHT31;67034;43.226;27.932;2023-11-19T15:24:54;4.33;71.74
77839;SHT31;67034;43.226;27.932;2023-11-19T15:27:20;4.31;71.86
77839;SHT31;67034;43.226;27.932;2023-11-19T15:29:46;4.28;72.02
77839;SHT31;67034;43.226;27.932;2023-11-19T15:32:11;4.25;72.05